Time;durP1;ratioP1;P1;durP2;ratioP2;P2;SDS_P1;SDS_P2;PMS_P1;PMS_P2;Temp;Humidity;BMP_temperature;BMP_pressure;BME280_temperature;BME280_humidity;BME280_pressure;Samples;Min_cycle;Max_cycle;Signal;HPM_P1;HPM_P2
2022/04/19 00:00:35;;;;;;;3.05;2.75;;;7.00;81.50;;;;;;5077807;28;20028;-63
2022/04/19 00:03:02;;;;;;;3.25;2.95;;;7.00;81.70;;;;;;5080141;28;20113;-62
2022/04/19 00:05:29;;;;;;;2.92;2.72;;;7.00;81.60;;;;;;5072646;28;20112;-63
2022/04/19 00:07:55;;;;;;;2.83;2.63;;;7.00;81.60;;;;;;5072487;28;20047;-62
2022/04/19 00:10:21;;;;;;;3.03;2.72;;;7.00;81.60;;;;;;5073564;28;20025;-63
2022/04/19 00:12:47;;;;;;;3.38;3.08;;;7.00;81.60;;;;;;5067082;28;20027;-63
2022/04/19 00:15:15;;;;;;;2.72;2.53;;;7.00;81.60;;;;;;5071298;28;20036;-63
2022/04/19 00:17:41;;;;;;;3.03;2.45;;;7.00;81.70;;;;;;5072169;28;20059;-63
2022/04/19 00:20:07;;;;;;;3.83;2.50;;;7.00;81.80;;;;;;5072241;28;20020;-63
2022/04/19 00:22:33;;;;;;;2.97;2.70;;;7.00;81.70;;;;;;5072657;28;20415;-63
2022/04/19 00:24:59;;;;;;;2.63;2.42;;;7.00;81.80;;;;;;5072590;28;20032;-63
2022/04/19 00:27:25;;;;;;;2.78;2.55;;;7.00;81.70;;;;;;5059470;28;20036;-62
2022/04/19 00:29:53;;;;;;;2.72;2.53;;;6.90;81.60;;;;;;5070534;28;20052;-63
2022/04/19 00:32:20;;;;;;;2.70;2.50;;;7.00;81.80;;;;;;5061012;28;20066;-63
2022/04/19 00:34:46;;;;;;;3.55;2.90;;;7.00;81.90;;;;;;5082642;28;20073;-63
2022/04/19 00:37:13;;;;;;;2.75;2.55;;;7.00;81.90;;;;;;5074436;28;20546;-63
2022/04/19 00:39:39;;;;;;;2.60;2.40;;;7.00;81.80;;;;;;5089312;28;20050;-63
2022/04/19 00:42:07;;;;;;;3.00;2.70;;;7.00;81.80;;;;;;5063144;28;20035;-63
2022/04/19 00:44:37;;;;;;;2.60;2.40;;;7.00;81.90;;;;;;5072470;28;20067;-63
2022/04/19 00:47:05;;;;;;;3.22;2.40;;;7.00;81.90;;;;;;5072143;28;20434;-62
2022/04/19 00:49:32;;;;;;;2.92;2.60;;;7.00;81.80;;;;;;5078609;28;20050;-63
2022/04/19 00:51:58;;;;;;;2.80;2.60;;;7.00;81.90;;;;;;5076354;28;20059;-62
2022/04/19 00:54:24;;;;;;;2.78;2.58;;;7.00;81.90;;;;;;5072182;28;20067;-63
2022/04/19 00:56:49;;;;;;;3.17;2.80;;;7.00;81.90;;;;;;5073416;28;20032;-63
2022/04/19 00:59:15;;;;;;;3.15;2.80;;;7.00;81.90;;;;;;5069756;28;20032;-62
2022/04/19 01:01:41;;;;;;;3.42;3.00;;;7.00;82.00;;;;;;5059158;28;20107;-63
2022/04/19 01:04:07;;;;;;;3.15;2.80;;;7.00;82.10;;;;;;5090402;28;20435;-62
2022/04/19 01:06:32;;;;;;;3.30;3.00;;;7.00;82.10;;;;;;5062968;28;20067;-63
2022/04/19 01:08:58;;;;;;;3.45;3.13;;;7.00;82.20;;;;;;5077138;28;20158;-63
2022/04/19 01:14:08;;;;;;;4.43;2.90;;;7.00;82.30;;;;;;5073368;28;20565;-62
2022/04/19 01:16:35;;;;;;;3.30;3.03;;;7.00;82.40;;;;;;5074378;28;20170;-63
2022/04/19 01:19:01;;;;;;;3.70;3.15;;;7.00;82.50;;;;;;5075755;28;20025;-63
2022/04/19 01:21:51;;;;;;;3.53;3.20;;;7.00;82.50;;;;;;5075840;28;20025;-63
2022/04/19 01:24:18;;;;;;;3.17;2.88;;;7.00;82.60;;;;;;5075298;28;20051;-62
2022/04/19 01:26:44;;;;;;;3.42;3.10;;;7.00;82.70;;;;;;5090776;28;20028;-62
2022/04/19 01:29:10;;;;;;;3.53;2.85;;;7.00;82.80;;;;;;5082186;28;20028;-63
2022/04/19 01:31:38;;;;;;;3.70;3.10;;;7.00;82.90;;;;;;5081123;28;20029;-62
2022/04/19 01:34:03;;;;;;;3.20;2.90;;;7.00;82.90;;;;;;5075453;28;20111;-63
2022/04/19 01:36:29;;;;;;;3.65;3.17;;;7.00;82.90;;;;;;5081544;28;20055;-63
2022/04/19 01:38:55;;;;;;;3.40;3.10;;;7.00;83.10;;;;;;5075536;28;20029;-63
2022/04/19 01:41:21;;;;;;;3.85;3.40;;;7.10;83.20;;;;;;5078808;28;20024;-62
2022/04/19 01:43:47;;;;;;;3.47;3.13;;;7.00;83.30;;;;;;5081876;28;20078;-62
2022/04/19 01:46:15;;;;;;;3.25;2.95;;;7.00;83.40;;;;;;5081983;28;20055;-63
2022/04/19 01:48:40;;;;;;;3.80;3.40;;;7.00;83.40;;;;;;5088659;28;20041;-63
2022/04/19 01:51:06;;;;;;;3.17;2.90;;;7.00;83.40;;;;;;5079067;28;20512;-63
2022/04/19 01:53:32;;;;;;;3.92;3.05;;;7.00;83.60;;;;;;5075846;28;20132;-63
2022/04/19 01:55:58;;;;;;;3.33;3.03;;;7.00;83.60;;;;;;5077532;28;20029;-63
2022/04/19 01:58:24;;;;;;;3.15;2.88;;;7.00;83.60;;;;;;5073974;28;20028;-63
2022/04/19 02:00:49;;;;;;;3.90;3.20;;;7.00;83.70;;;;;;5081959;28;20036;-62
2022/04/19 02:03:16;;;;;;;3.40;3.10;;;7.00;83.80;;;;;;5081691;28;20031;-63
2022/04/19 02:05:41;;;;;;;2.90;2.70;;;7.00;83.80;;;;;;5084360;28;20033;-63
2022/04/19 02:08:07;;;;;;;3.47;2.70;;;7.00;83.90;;;;;;5068810;28;20031;-63
2022/04/19 02:10:33;;;;;;;3.08;2.78;;;7.00;83.90;;;;;;5074599;28;20028;-63
2022/04/19 02:12:59;;;;;;;2.92;2.63;;;7.00;83.90;;;;;;5077651;28;20370;-63
2022/04/19 02:15:24;;;;;;;2.60;2.40;;;7.00;83.60;;;;;;5077912;28;20024;-63
2022/04/19 02:17:50;;;;;;;2.90;2.70;;;7.00;83.60;;;;;;5074500;28;20054;-63
2022/04/19 02:20:18;;;;;;;3.40;3.10;;;7.00;83.80;;;;;;5086228;28;20056;-63
2022/04/19 02:22:44;;;;;;;3.30;2.78;;;7.00;83.80;;;;;;5066913;28;20104;-62
2022/04/19 02:25:12;;;;;;;2.80;2.60;;;7.00;83.90;;;;;;5082871;28;20032;-63
2022/04/19 02:27:39;;;;;;;2.60;2.40;;;7.00;83.90;;;;;;5074084;28;20028;-63
2022/04/19 02:30:07;;;;;;;2.60;2.40;;;7.00;83.90;;;;;;5072885;28;20574;-63
2022/04/19 02:32:33;;;;;;;3.17;2.83;;;7.00;83.90;;;;;;5082091;28;20076;-63
2022/04/19 02:34:59;;;;;;;3.55;2.85;;;7.00;83.90;;;;;;5078198;28;20061;-63
2022/04/19 02:37:25;;;;;;;2.78;2.58;;;7.00;84.00;;;;;;5073841;28;20025;-63
2022/04/19 02:39:51;;;;;;;2.80;2.60;;;7.00;83.90;;;;;;5076541;28;20515;-63
2022/04/19 02:42:17;;;;;;;3.00;2.60;;;7.00;83.90;;;;;;5075524;28;20044;-63
2022/04/19 02:44:43;;;;;;;3.17;2.80;;;7.00;83.80;;;;;;5078112;28;20040;-63
2022/04/19 02:47:09;;;;;;;2.95;2.65;;;7.00;83.70;;;;;;5071945;28;20488;-63
2022/04/19 02:49:36;;;;;;;3.10;2.80;;;7.00;83.80;;;;;;5077149;28;20036;-63
2022/04/19 02:52:03;;;;;;;2.85;2.50;;;6.90;83.80;;;;;;5073853;28;20059;-63
2022/04/19 02:54:29;;;;;;;2.70;2.50;;;6.90;84.00;;;;;;5075829;28;20035;-63
2022/04/19 02:56:54;;;;;;;3.55;2.70;;;7.00;84.00;;;;;;5066839;28;20387;-63
2022/04/19 02:59:20;;;;;;;3.35;3.00;;;6.90;84.00;;;;;;5073611;28;20311;-63
2022/04/19 03:01:46;;;;;;;3.17;2.88;;;6.90;84.00;;;;;;5074768;28;20107;-63
2022/04/19 03:04:12;;;;;;;2.70;2.50;;;6.90;84.10;;;;;;5078045;28;20099;-62
2022/04/19 03:06:37;;;;;;;3.30;3.00;;;6.90;84.20;;;;;;5080261;28;20132;-63
2022/04/19 03:09:03;;;;;;;3.78;2.58;;;6.90;84.30;;;;;;5077597;28;20031;-63
2022/04/19 03:11:29;;;;;;;2.90;2.70;;;7.00;84.30;;;;;;5072993;28;20472;-63
2022/04/19 03:13:55;;;;;;;2.50;2.30;;;6.90;84.20;;;;;;5083797;28;20488;-63
2022/04/19 03:16:21;;;;;;;2.97;2.67;;;6.90;84.30;;;;;;5083103;28;20039;-62
2022/04/19 03:18:47;;;;;;;3.00;2.72;;;7.00;84.20;;;;;;5083561;28;20115;-62
2022/04/19 03:21:13;;;;;;;3.50;3.00;;;6.90;84.20;;;;;;5081338;28;20033;-62
2022/04/19 03:29:10;;;;;;;3.00;2.70;;;6.90;84.30;;;;;;5069928;28;20515;-63
2022/04/19 03:31:36;;;;;;;3.00;2.70;;;6.90;84.20;;;;;;5081685;28;20021;-63
2022/04/19 03:34:03;;;;;;;3.03;2.78;;;6.90;84.50;;;;;;5074853;28;20021;-63
2022/04/19 03:36:29;;;;;;;2.85;2.60;;;7.00;84.90;;;;;;5078738;28;20033;-63
2022/04/19 03:38:55;;;;;;;3.00;2.70;;;7.00;85.00;;;;;;5080702;28;20032;-63
2022/04/19 03:41:21;;;;;;;2.80;2.60;;;7.00;84.90;;;;;;5072510;28;20480;-63
2022/04/19 03:43:46;;;;;;;3.50;2.97;;;7.00;84.90;;;;;;5080226;28;20380;-63
2022/04/19 03:46:12;;;;;;;3.30;3.00;;;7.00;85.10;;;;;;5065744;28;20056;-63
2022/04/19 03:48:38;;;;;;;3.40;2.80;;;7.00;84.90;;;;;;5075098;28;20054;-63
2022/04/19 03:51:04;;;;;;;3.08;2.65;;;7.00;84.90;;;;;;5067435;28;20029;-63
2022/04/19 03:53:33;;;;;;;3.42;2.95;;;7.00;84.80;;;;;;5071666;28;20383;-63
2022/04/19 03:55:58;;;;;;;2.90;2.60;;;7.00;84.80;;;;;;5076554;28;20491;-63
2022/04/19 03:58:25;;;;;;;3.30;3.00;;;7.00;84.80;;;;;;5072797;28;20036;-63
2022/04/19 04:00:51;;;;;;;3.70;3.03;;;7.00;84.90;;;;;;5076848;28;20027;-62
2022/04/19 04:03:17;;;;;;;3.53;3.20;;;7.10;85.00;;;;;;5065530;28;20029;-62
2022/04/19 04:05:42;;;;;;;4.00;3.08;;;7.10;84.90;;;;;;5076053;28;20416;-63
2022/04/19 04:08:08;;;;;;;2.90;2.70;;;7.10;84.90;;;;;;5072762;28;20036;-63
2022/04/19 04:10:34;;;;;;;3.00;2.67;;;7.10;85.10;;;;;;5083475;28;20035;-63
2022/04/19 04:13:00;;;;;;;4.50;3.20;;;7.10;85.00;;;;;;5063787;28;20112;-63
2022/04/19 04:15:26;;;;;;;3.28;2.97;;;7.10;84.90;;;;;;5072016;28;20028;-62
2022/04/19 04:17:51;;;;;;;3.22;2.90;;;7.10;84.80;;;;;;5079666;28;20044;-63
2022/04/19 04:20:17;;;;;;;3.30;3.00;;;7.10;84.80;;;;;;5084796;28;20476;-62
2022/04/19 04:22:43;;;;;;;3.33;3.03;;;7.10;84.90;;;;;;5072317;28;20079;-63
2022/04/19 04:25:08;;;;;;;3.58;2.90;;;7.10;85.10;;;;;;5084539;28;20487;-62
2022/04/19 04:27:34;;;;;;;3.10;2.80;;;7.20;85.00;;;;;;5081826;28;20111;-62
2022/04/19 04:30:00;;;;;;;3.85;3.20;;;7.20;84.70;;;;;;5076207;28;20036;-63
2022/04/19 04:32:25;;;;;;;4.20;3.03;;;7.20;84.80;;;;;;5075097;28;20027;-63
2022/04/19 04:34:51;;;;;;;3.00;2.70;;;7.20;84.70;;;;;;5071699;28;20081;-62
2022/04/19 04:37:16;;;;;;;2.90;2.60;;;7.20;84.80;;;;;;5065761;28;20032;-63
2022/04/19 04:39:42;;;;;;;2.78;2.58;;;7.20;84.70;;;;;;5072099;28;20025;-63
2022/04/19 04:42:08;;;;;;;3.33;3.00;;;7.20;84.60;;;;;;5068613;28;20032;-63
2022/04/19 04:44:34;;;;;;;3.03;2.60;;;7.20;84.70;;;;;;5081854;28;20384;-62
2022/04/19 04:49:44;;;;;;;3.85;3.05;;;7.30;84.60;;;;;;5062164;28;20041;-62
2022/04/19 04:52:12;;;;;;;3.65;3.00;;;7.30;84.40;;;;;;5066904;28;20024;-62
2022/04/19 04:54:39;;;;;;;3.15;2.75;;;7.30;84.50;;;;;;5067840;28;20041;-62
2022/04/19 04:57:05;;;;;;;3.08;2.78;;;7.30;84.50;;;;;;5070785;28;20032;-62
2022/04/19 04:59:32;;;;;;;3.10;2.80;;;7.40;84.40;;;;;;5068194;28;20110;-62
2022/04/19 05:01:58;;;;;;;3.00;2.70;;;7.40;84.30;;;;;;5068768;28;20115;-62
2022/04/19 05:04:24;;;;;;;3.22;2.92;;;7.40;84.00;;;;;;5071722;28;20133;-62
2022/04/19 05:06:50;;;;;;;3.15;2.85;;;7.40;84.00;;;;;;5073670;28;20446;-62
2022/04/19 05:09:16;;;;;;;3.50;3.00;;;7.50;84.20;;;;;;5048632;28;20135;-62
2022/04/19 05:11:42;;;;;;;3.20;2.90;;;7.50;84.10;;;;;;5068818;28;20103;-62
2022/04/19 05:14:08;;;;;;;2.88;2.60;;;7.50;84.20;;;;;;5069095;28;20036;-62
2022/04/19 05:16:36;;;;;;;3.13;2.85;;;7.50;84.10;;;;;;5068591;28;20071;-62
2022/04/19 05:19:03;;;;;;;2.90;2.70;;;7.50;83.90;;;;;;5056234;28;20037;-62
2022/04/19 05:21:29;;;;;;;2.88;2.58;;;7.50;83.80;;;;;;5066436;28;20030;-62
2022/04/19 05:23:55;;;;;;;2.50;2.30;;;7.50;83.90;;;;;;5074099;28;20103;-62
2022/04/19 05:26:28;;;;;;;2.42;2.22;;;7.60;83.90;;;;;;5069952;28;20106;-62
2022/04/19 05:28:54;;;;;;;2.58;2.38;;;7.60;83.90;;;;;;5071447;28;20381;-62
2022/04/19 05:31:20;;;;;;;2.50;2.30;;;7.60;83.90;;;;;;5072075;28;20111;-62
2022/04/19 05:33:45;;;;;;;2.63;2.42;;;7.60;83.70;;;;;;5063228;28;20541;-62
2022/04/19 05:36:12;;;;;;;3.05;2.58;;;7.70;83.90;;;;;;5060853;28;20439;-62
2022/04/19 05:38:38;;;;;;;2.45;2.25;;;7.70;83.80;;;;;;5065108;28;20117;-62
2022/04/19 05:41:04;;;;;;;2.55;2.35;;;7.70;83.70;;;;;;5062660;28;20095;-62
2022/04/19 05:43:29;;;;;;;2.63;2.42;;;7.70;83.60;;;;;;5065110;28;20024;-62
2022/04/19 05:45:57;;;;;;;2.40;2.28;;;7.70;83.50;;;;;;5066770;28;20115;-62
2022/04/19 05:48:24;;;;;;;2.38;2.17;;;7.80;83.60;;;;;;5068729;28;20063;-62
2022/04/19 05:50:49;;;;;;;2.40;2.20;;;7.80;83.50;;;;;;5066947;28;20078;-62
2022/04/19 05:53:15;;;;;;;2.47;2.28;;;7.80;83.20;;;;;;5058457;28;20028;-62
2022/04/19 05:55:41;;;;;;;2.55;2.35;;;7.80;83.20;;;;;;5058551;28;20039;-62
2022/04/19 05:58:07;;;;;;;2.42;2.20;;;7.80;83.30;;;;;;5056563;28;20764;-62
2022/04/19 06:00:33;;;;;;;2.10;2.00;;;7.90;83.30;;;;;;5055832;28;20074;-62
2022/04/19 06:05:43;;;;;;;1.63;1.52;;;7.90;83.30;;;;;;5059213;28;20253;-62
2022/04/19 06:08:09;;;;;;;1.90;1.80;;;7.90;82.90;;;;;;5053018;28;20480;-62
2022/04/19 06:10:34;;;;;;;2.10;2.00;;;7.90;83.00;;;;;;5061263;28;20510;-62
2022/04/19 06:13:00;;;;;;;1.85;1.75;;;8.00;83.00;;;;;;5058219;28;20726;-62
2022/04/19 06:15:26;;;;;;;1.98;1.88;;;8.00;83.00;;;;;;5049001;28;20071;-62
2022/04/19 06:17:51;;;;;;;2.00;1.90;;;8.00;83.00;;;;;;5059519;28;20068;-62
2022/04/19 06:20:17;;;;;;;1.88;1.77;;;8.00;82.90;;;;;;5060134;28;20029;-62
2022/04/19 06:22:44;;;;;;;2.05;1.90;;;8.00;82.70;;;;;;5053861;28;20032;-62
2022/04/19 06:25:10;;;;;;;1.77;1.67;;;8.00;82.70;;;;;;5052691;28;20032;-62
2022/04/19 06:27:36;;;;;;;2.03;1.92;;;8.00;82.70;;;;;;5054605;28;20029;-62
2022/04/19 06:30:04;;;;;;;1.83;1.73;;;8.10;82.60;;;;;;5056643;28;20361;-62
2022/04/19 06:32:30;;;;;;;1.88;1.77;;;8.10;82.60;;;;;;5053603;28;20529;-62
2022/04/19 06:34:55;;;;;;;2.28;2.08;;;8.10;82.60;;;;;;5055170;28;20328;-62
2022/04/19 06:37:22;;;;;;;2.00;1.90;;;8.10;82.60;;;;;;5056754;28;20127;-62
2022/04/19 06:39:48;;;;;;;2.10;2.00;;;8.20;82.50;;;;;;5059153;28;20043;-62
2022/04/19 06:42:14;;;;;;;2.28;2.05;;;8.20;82.50;;;;;;5050359;28;20111;-62
2022/04/19 06:44:40;;;;;;;1.98;1.88;;;8.20;82.50;;;;;;5059827;28;20123;-62
2022/04/19 06:47:07;;;;;;;2.55;2.35;;;8.30;82.70;;;;;;5054516;28;20078;-62
2022/04/19 06:49:33;;;;;;;2.60;2.40;;;8.30;82.70;;;;;;5057217;28;20738;-62
2022/04/19 06:51:59;;;;;;;2.60;2.40;;;8.40;82.50;;;;;;5058813;28;20035;-62
2022/04/19 06:54:25;;;;;;;2.33;2.13;;;8.40;82.30;;;;;;5064131;28;20074;-62
2022/04/19 06:56:51;;;;;;;1.75;1.65;;;8.40;82.20;;;;;;5052488;28;20472;-62
2022/04/19 06:59:17;;;;;;;2.00;1.90;;;8.40;82.00;;;;;;5056677;28;20057;-62
2022/04/19 07:01:43;;;;;;;2.10;2.00;;;8.40;81.80;;;;;;5057622;28;20105;-62
2022/04/19 07:04:09;;;;;;;2.10;1.90;;;8.40;81.80;;;;;;5055407;28;20039;-61
2022/04/19 07:06:35;;;;;;;2.17;2.00;;;8.40;81.90;;;;;;5044289;28;20405;-62
2022/04/19 07:09:02;;;;;;;2.83;2.53;;;8.40;81.80;;;;;;5053479;28;20039;-62
2022/04/19 07:11:28;;;;;;;2.35;2.22;;;8.50;81.70;;;;;;5057446;28;20020;-62
2022/04/19 07:13:54;;;;;;;2.88;2.60;;;8.50;81.60;;;;;;5047495;28;20774;-62
2022/04/19 07:16:20;;;;;;;2.53;2.33;;;8.50;81.70;;;;;;5050901;28;20037;-62
2022/04/19 07:18:47;;;;;;;2.15;2.05;;;8.50;81.40;;;;;;5035686;28;20044;-62
2022/04/19 07:26:40;;;;;;;2.38;2.17;;;8.50;81.20;;;;;;5048168;28;20105;-61
2022/04/19 07:29:11;;;;;;;2.33;2.13;;;8.50;81.10;;;;;;5060906;28;20025;-61
2022/04/19 07:31:47;;;;;;;2.28;2.15;;;8.50;81.10;;;;;;5044260;28;20032;-62
2022/04/19 07:34:14;;;;;;;2.45;2.25;;;8.50;81.10;;;;;;5049475;28;20017;-60
2022/04/19 07:36:41;;;;;;;2.58;2.38;;;8.50;81.00;;;;;;5044767;28;21729;-62
2022/04/19 07:39:11;;;;;;;2.42;2.22;;;8.50;81.10;;;;;;5048334;28;20065;-60
2022/04/19 07:41:39;;;;;;;2.20;2.00;;;8.50;81.30;;;;;;5046401;28;20029;-61
2022/04/19 07:44:08;;;;;;;2.70;2.50;;;8.50;81.30;;;;;;5044381;28;20112;-60
2022/04/19 07:46:34;;;;;;;2.30;2.17;;;8.50;81.20;;;;;;5032684;28;20385;-61
2022/04/19 07:48:59;;;;;;;2.83;2.50;;;8.60;81.30;;;;;;5042115;28;20032;-60
2022/04/19 07:51:25;;;;;;;3.13;2.83;;;8.60;81.30;;;;;;5021539;28;20048;-60
2022/04/19 07:53:52;;;;;;;2.58;2.38;;;8.60;81.20;;;;;;5041819;28;20489;-61
2022/04/19 07:56:18;;;;;;;2.85;2.63;;;8.60;81.10;;;;;;5041715;28;20544;-61
2022/04/19 07:58:47;;;;;;;2.70;2.50;;;8.60;80.80;;;;;;5041674;28;20098;-61
2022/04/19 08:01:16;;;;;;;2.60;2.40;;;8.60;80.80;;;;;;5040500;28;20082;-60
2022/04/19 08:03:44;;;;;;;3.72;3.00;;;8.70;80.80;;;;;;5050607;28;20067;-61
2022/04/19 08:06:10;;;;;;;3.13;2.83;;;8.60;80.60;;;;;;5046363;28;20033;-61
2022/04/19 08:08:36;;;;;;;3.90;3.40;;;8.70;81.00;;;;;;5040246;28;20036;-59
2022/04/19 08:11:06;;;;;;;3.25;2.95;;;8.60;80.60;;;;;;5045517;28;20606;-61
2022/04/19 08:13:32;;;;;;;3.08;2.85;;;8.60;80.50;;;;;;5046392;28;20025;-60
2022/04/19 08:15:58;;;;;;;2.92;2.67;;;8.60;80.50;;;;;;5054181;28;20029;-61
2022/04/19 08:18:23;;;;;;;3.00;2.70;;;8.60;80.70;;;;;;5049877;28;20055;-60
2022/04/19 08:20:51;;;;;;;3.15;2.88;;;8.60;80.80;;;;;;5045166;28;20132;-61
2022/04/19 08:23:17;;;;;;;3.13;2.83;;;8.60;80.70;;;;;;5039450;28;20044;-61
2022/04/19 08:25:43;;;;;;;3.42;3.10;;;8.60;80.80;;;;;;5047086;28;20147;-62
2022/04/19 08:28:09;;;;;;;3.47;2.85;;;8.60;80.40;;;;;;5048521;28;20051;-62
2022/04/19 08:30:35;;;;;;;3.00;2.70;;;8.70;80.50;;;;;;5047401;28;20513;-62
2022/04/19 08:33:01;;;;;;;3.90;3.28;;;8.60;80.40;;;;;;5047677;28;20021;-61
2022/04/19 08:35:26;;;;;;;3.28;2.95;;;8.60;80.30;;;;;;5048025;28;20029;-63
2022/04/19 08:37:52;;;;;;;2.83;2.63;;;8.60;80.90;;;;;;5046115;28;20029;-62
2022/04/19 08:40:19;;;;;;;3.80;2.80;;;8.60;80.20;;;;;;5046254;28;20036;-62
2022/04/19 08:42:46;;;;;;;3.28;2.97;;;8.60;80.30;;;;;;5040077;28;20032;-61
2022/04/19 08:45:15;;;;;;;3.03;2.72;;;8.60;80.20;;;;;;5037188;28;20136;-61
2022/04/19 08:47:47;;;;;;;2.97;2.78;;;8.70;80.20;;;;;;5037082;28;20040;-62
2022/04/19 08:50:15;;;;;;;2.90;2.60;;;8.70;80.10;;;;;;5039684;28;20037;-61
2022/04/19 08:52:41;;;;;;;3.42;3.00;;;8.70;80.10;;;;;;5042920;28;20166;-63
2022/04/19 08:57:54;;;;;;;3.33;3.03;;;8.70;80.10;;;;;;5041769;28;20874;-62
2022/04/19 09:00:23;;;;;;;3.20;2.90;;;8.70;80.20;;;;;;5042627;28;20055;-61
2022/04/19 09:02:51;;;;;;;3.40;3.10;;;8.70;80.20;;;;;;5028699;28;20043;-61
2022/04/19 09:05:21;;;;;;;3.25;2.95;;;8.80;80.20;;;;;;5036730;28;20700;-62
2022/04/19 09:08:12;;;;;;;3.30;3.00;;;8.80;80.10;;;;;;5042414;28;20570;-63
2022/04/19 09:10:38;;;;;;;3.20;2.90;;;8.80;79.90;;;;;;5044206;28;20028;-59
2022/04/19 09:13:04;;;;;;;2.97;2.78;;;8.80;80.10;;;;;;5041893;28;20032;-61
2022/04/19 09:15:42;;;;;;;3.65;3.20;;;8.80;80.10;;;;;;5041773;28;20029;-61
2022/04/19 09:18:33;;;;;;;2.78;2.58;;;8.80;80.10;;;;;;5043556;28;20072;-61
2022/04/19 09:21:00;;;;;;;2.88;2.67;;;8.90;80.00;;;;;;5047035;28;22176;-62
2022/04/19 09:23:29;;;;;;;4.03;3.08;;;8.90;80.20;;;;;;5040834;28;20052;-62
2022/04/19 09:25:57;;;;;;;2.60;2.40;;;8.90;80.20;;;;;;5036690;28;20043;-62
2022/04/19 09:28:25;;;;;;;3.25;2.95;;;9.00;80.10;;;;;;5029621;28;20143;-61
2022/04/19 09:30:59;;;;;;;3.72;2.60;;;9.00;80.10;;;;;;5030482;28;20032;-61
2022/04/19 09:33:29;;;;;;;3.13;2.80;;;9.10;79.90;;;;;;5044825;28;20025;-62
2022/04/19 09:36:03;;;;;;;3.22;2.92;;;9.10;79.80;;;;;;5045548;28;20021;-61
2022/04/19 09:38:47;;;;;;;3.00;2.78;;;9.10;79.80;;;;;;5042688;28;20037;-61
2022/04/19 09:41:28;;;;;;;2.90;2.70;;;9.30;79.50;;;;;;5042823;28;20033;-60
2022/04/19 09:44:11;;;;;;;2.85;2.65;;;9.30;79.00;;;;;;5046788;28;20028;-60
2022/04/19 09:46:37;;;;;;;2.70;2.50;;;9.30;78.70;;;;;;5048084;28;20078;-60
2022/04/19 09:49:03;;;;;;;3.28;2.97;;;9.30;78.70;;;;;;5037566;28;20033;-62
2022/04/19 09:51:33;;;;;;;2.95;2.70;;;9.30;78.70;;;;;;5038591;28;20056;-60
2022/04/19 09:53:59;;;;;;;2.55;2.35;;;9.40;78.70;;;;;;5039345;28;20033;-61
2022/04/19 09:56:37;;;;;;;2.80;2.60;;;9.40;78.60;;;;;;5033373;28;20029;-60
2022/04/19 09:59:03;;;;;;;2.85;2.65;;;9.40;78.40;;;;;;5037178;28;20143;-61
2022/04/19 10:09:39;;;;;;;3.47;2.65;;;9.50;78.30;;;;;;5039249;28;20023;-61
2022/04/19 10:12:11;;;;;;;3.10;2.80;;;9.50;78.30;;;;;;5041251;28;20389;-61
2022/04/19 10:14:37;;;;;;;3.08;2.78;;;9.50;78.30;;;;;;5046305;28;20032;-62
2022/04/19 10:17:05;;;;;;;2.90;2.70;;;9.60;78.40;;;;;;5048517;28;20052;-61
2022/04/19 10:19:32;;;;;;;3.00;2.80;;;9.60;78.20;;;;;;5047006;28;20153;-61
2022/04/19 10:22:05;;;;;;;4.00;3.00;;;9.60;77.60;;;;;;5045134;28;20111;-62
2022/04/19 10:24:47;;;;;;;3.40;3.10;;;9.60;77.50;;;;;;5048047;28;20119;-62
2022/04/19 10:27:13;;;;;;;3.35;3.05;;;9.70;77.30;;;;;;5049674;28;20039;-61
2022/04/19 10:29:39;;;;;;;3.15;2.85;;;9.60;77.30;;;;;;5046194;28;20465;-61
2022/04/19 10:32:08;;;;;;;3.40;2.97;;;9.70;77.40;;;;;;5050257;28;20031;-62
2022/04/19 10:34:39;;;;;;;3.75;3.10;;;9.70;77.30;;;;;;5041203;28;20036;-61
2022/04/19 10:37:15;;;;;;;2.88;2.67;;;9.70;77.10;;;;;;5049981;28;20037;-61
2022/04/19 10:39:44;;;;;;;3.80;3.10;;;9.70;76.90;;;;;;5056667;28;20051;-61
2022/04/19 10:42:30;;;;;;;3.55;3.20;;;9.70;76.90;;;;;;5054987;28;20029;-61
2022/04/19 10:44:56;;;;;;;2.60;2.40;;;9.70;76.60;;;;;;5050384;28;20478;-62
2022/04/19 10:47:23;;;;;;;3.45;3.15;;;9.70;76.80;;;;;;5050074;28;20427;-59
2022/04/19 10:50:04;;;;;;;3.33;3.03;;;9.70;77.00;;;;;;5047457;28;20693;-62
2022/04/19 10:52:44;;;;;;;3.15;2.80;;;9.70;77.30;;;;;;5048452;28;20033;-60
2022/04/19 10:55:22;;;;;;;3.03;2.70;;;9.70;77.40;;;;;;5050117;28;20025;-61
2022/04/19 10:58:13;;;;;;;3.17;2.88;;;9.70;77.30;;;;;;5046380;28;21119;-61
2022/04/19 11:00:42;;;;;;;3.20;2.90;;;9.80;77.20;;;;;;5042249;28;20043;-61
2022/04/19 11:03:12;;;;;;;3.85;3.03;;;9.80;77.20;;;;;;5040141;28;20047;-61
2022/04/19 11:05:41;;;;;;;3.22;2.92;;;9.80;76.80;;;;;;5045472;28;20029;-61
2022/04/19 11:08:25;;;;;;;3.28;2.97;;;9.80;76.70;;;;;;5043909;28;20464;-61
2022/04/19 11:11:04;;;;;;;3.20;2.90;;;9.80;76.60;;;;;;5044873;28;20025;-62
2022/04/19 11:13:37;;;;;;;3.17;2.88;;;9.80;76.40;;;;;;5036150;28;20181;-62
2022/04/19 11:16:05;;;;;;;2.92;2.63;;;9.80;76.50;;;;;;5038851;28;20028;-62
2022/04/19 11:18:53;;;;;;;2.95;2.67;;;9.70;76.40;;;;;;5033175;28;20063;-62
2022/04/19 11:21:48;;;;;;;2.95;2.72;;;9.70;76.60;;;;;;5041056;28;20059;-62
2022/04/19 11:24:52;;;;;;;3.60;3.03;;;9.70;76.70;;;;;;5038703;28;20021;-61
2022/04/19 11:27:19;;;;;;;2.78;2.55;;;9.70;76.90;;;;;;5037070;28;20060;-62
2022/04/19 11:29:51;;;;;;;3.42;3.13;;;9.80;77.30;;;;;;5049716;28;20028;-62
2022/04/19 11:32:25;;;;;;;3.63;3.00;;;9.80;77.20;;;;;;5046179;28;23067;-62
2022/04/19 11:35:04;;;;;;;2.97;2.60;;;9.90;77.20;;;;;;5047778;28;20024;-61
2022/04/19 11:37:31;;;;;;;3.20;2.95;;;10.00;76.80;;;;;;5040669;28;20096;-61
2022/04/19 11:48:30;;;;;;;3.33;3.03;;;10.10;76.50;;;;;;5049819;28;20568;-62
2022/04/19 11:51:10;;;;;;;2.92;2.72;;;10.10;76.70;;;;;;5045905;28;20040;-61
2022/04/19 11:53:36;;;;;;;3.20;2.90;;;10.20;76.70;;;;;;5040723;28;20044;-63
2022/04/19 11:56:03;;;;;;;3.53;3.08;;;10.20;76.70;;;;;;5034474;28;20680;-61
2022/04/19 11:58:30;;;;;;;3.17;2.88;;;10.30;76.50;;;;;;5036458;28;20043;-61
2022/04/19 12:01:01;;;;;;;2.90;2.70;;;10.30;76.50;;;;;;5036362;28;20074;-60
2022/04/19 12:03:30;;;;;;;;;;;10.40;76.40;;;;;;5039119;28;20028;-62
2022/04/19 12:06:14;;;;;;;2.47;2.30;;;10.40;76.30;;;;;;5037267;28;19912;-62
2022/04/19 12:08:44;;;;;;;2.58;2.40;;;10.40;76.10;;;;;;5035335;28;20040;-60
2022/04/19 12:11:16;;;;;;;3.05;2.75;;;10.50;75.90;;;;;;5047588;28;20052;-61
2022/04/19 12:13:43;;;;;;;2.72;2.53;;;10.50;75.80;;;;;;5043425;28;20047;-60
2022/04/19 12:16:37;;;;;;;3.10;2.80;;;10.50;75.60;;;;;;5039138;28;20043;-61
2022/04/19 12:19:12;;;;;;;2.80;2.60;;;10.50;75.50;;;;;;5041525;28;20044;-59
2022/04/19 12:21:45;;;;;;;2.90;2.67;;;10.50;75.80;;;;;;5036583;28;21153;-61
2022/04/19 12:24:20;;;;;;;3.13;2.88;;;10.40;76.30;;;;;;5038776;28;20057;-60
2022/04/19 12:27:03;;;;;;;2.90;2.70;;;10.40;75.80;;;;;;5040131;28;21013;-61
2022/04/19 12:29:29;;;;;;;2.80;2.60;;;10.40;75.90;;;;;;5034660;28;20036;-61
2022/04/19 12:32:00;;;;;;;2.90;2.70;;;10.40;75.70;;;;;;5043544;28;20044;-60
2022/04/19 12:34:37;;;;;;;2.60;2.40;;;10.40;75.80;;;;;;5043399;28;20029;-61
2022/04/19 12:37:07;;;;;;;2.97;2.72;;;10.40;75.60;;;;;;5048494;28;20032;-60
2022/04/19 12:39:33;;;;;;;3.10;2.90;;;10.40;75.50;;;;;;5041928;28;20036;-61
2022/04/19 12:42:07;;;;;;;3.05;2.85;;;10.40;75.70;;;;;;5043867;28;20105;-61
2022/04/19 12:44:35;;;;;;;2.83;2.63;;;10.30;75.60;;;;;;5045709;28;20404;-61
2022/04/19 12:47:08;;;;;;;3.20;2.90;;;10.40;75.60;;;;;;5046732;28;20032;-61
2022/04/19 12:49:44;;;;;;;2.90;2.70;;;10.30;75.50;;;;;;5045817;28;20630;-61
2022/04/19 12:52:11;;;;;;;2.88;2.67;;;10.30;75.50;;;;;;5050390;28;20492;-60
2022/04/19 12:54:50;;;;;;;2.78;2.58;;;10.30;75.70;;;;;;5053276;28;20029;-59
2022/04/19 12:57:23;;;;;;;2.72;2.53;;;10.40;75.80;;;;;;5055120;28;21915;-60
2022/04/19 12:59:50;;;;;;;2.88;2.67;;;10.40;75.90;;;;;;5051723;28;20032;-60
2022/04/19 13:02:18;;;;;;;3.30;3.00;;;10.40;75.70;;;;;;5047733;28;20519;-58
2022/04/19 13:04:48;;;;;;;3.10;2.80;;;10.40;75.60;;;;;;5044301;28;20035;-59
2022/04/19 13:12:59;;;;;;;2.88;2.63;;;10.40;75.60;;;;;;4990706;28;20177;-59
2022/04/19 13:15:24;;;;;;;2.85;2.65;;;10.40;75.50;;;;;;5035658;28;20472;-58
2022/04/19 13:17:50;;;;;;;3.20;2.90;;;10.40;75.70;;;;;;5047673;28;20047;-60
2022/04/19 13:20:16;;;;;;;3.28;2.97;;;10.40;75.90;;;;;;5047173;28;20035;-59
2022/04/19 13:22:42;;;;;;;3.30;3.00;;;10.50;76.00;;;;;;5047178;28;20086;-58
2022/04/19 13:25:08;;;;;;;5.15;4.25;;;10.50;75.80;;;;;;5050067;28;20116;-59
2022/04/19 13:27:36;;;;;;;5.30;4.65;;;10.60;75.60;;;;;;5050677;28;20558;-60
2022/04/19 13:30:06;;;;;;;3.67;3.35;;;10.60;75.70;;;;;;5056218;28;20024;-60
2022/04/19 13:32:32;;;;;;;5.07;3.85;;;10.70;75.60;;;;;;5055763;28;20087;-60
2022/04/19 13:34:58;;;;;;;3.38;3.08;;;10.70;75.40;;;;;;5051657;28;20032;-61
2022/04/19 13:40:09;;;;;;;4.07;3.30;;;10.60;75.10;;;;;;5055085;28;20094;-61
2022/04/19 13:42:34;;;;;;;3.58;3.28;;;10.60;75.20;;;;;;5059249;28;20043;-61
2022/04/19 13:45:00;;;;;;;3.17;2.97;;;10.60;75.20;;;;;;5050953;28;20040;-61
2022/04/19 13:47:26;;;;;;;3.45;3.15;;;10.70;75.30;;;;;;5055148;28;20060;-59